createdAt,value
2023-08-24T00:00:59.744Z,17.03
2023-08-24T00:04:03.496Z,16.96
2023-08-24T00:07:07.394Z,16.95
2023-08-24T00:10:11.821Z,16.96
2023-08-24T00:13:15.628Z,16.98
2023-08-24T00:16:21.692Z,17.02
2023-08-24T00:19:25.740Z,16.98
2023-08-24T00:22:29.387Z,16.96
2023-08-24T00:25:33.661Z,16.95
2023-08-24T00:28:37.298Z,16.97
2023-08-24T00:31:42.445Z,16.97
2023-08-24T00:34:46.165Z,16.84
2023-08-24T00:37:49.975Z,16.82
2023-08-24T00:40:54.959Z,16.72
2023-08-24T00:43:58.905Z,16.67
2023-08-24T00:47:04.034Z,16.67
2023-08-24T00:50:09.613Z,16.58
2023-08-24T00:53:14.024Z,16.57
2023-08-24T00:56:18.245Z,16.59
2023-08-24T00:59:22.230Z,16.60
2023-08-24T01:02:27.975Z,16.60
2023-08-24T01:05:31.976Z,16.50
2023-08-24T01:08:35.823Z,16.41
2023-08-24T01:11:55.680Z,16.34
2023-08-24T01:15:09.450Z,16.26
2023-08-24T01:18:21.472Z,16.22
2023-08-24T01:21:27.237Z,16.21
2023-08-24T01:24:40.789Z,16.25
2023-08-24T01:27:48.370Z,16.31
2023-08-24T01:30:52.503Z,16.30
2023-08-24T01:33:56.252Z,16.31
2023-08-24T01:36:59.870Z,16.34
2023-08-24T01:40:13.289Z,16.34
2023-08-24T01:43:36.828Z,16.31
2023-08-24T01:46:49.652Z,16.28
2023-08-24T01:49:53.916Z,16.24
2023-08-24T01:52:57.989Z,16.21
2023-08-24T01:56:01.750Z,16.17
2023-08-24T01:59:06.843Z,16.11
2023-08-24T02:02:10.486Z,16.06
2023-08-24T02:05:14.173Z,16.06
2023-08-24T02:08:17.846Z,16.04
2023-08-24T02:11:21.601Z,16.07
2023-08-24T02:14:26.603Z,16.01
2023-08-24T02:17:30.288Z,15.99
2023-08-24T02:20:37.833Z,15.97
2023-08-24T02:23:41.823Z,15.93
2023-08-24T02:26:45.413Z,15.89
2023-08-24T02:29:50.448Z,15.91
2023-08-24T02:32:54.221Z,15.88
2023-08-24T02:35:58.153Z,15.78
2023-08-24T02:39:02.087Z,15.70
2023-08-24T02:42:06.028Z,15.68
2023-08-24T02:45:26.972Z,15.63
2023-08-24T02:48:30.819Z,15.64
2023-08-24T02:51:34.462Z,15.62
2023-08-24T02:54:38.053Z,15.58
2023-08-24T02:57:41.666Z,15.49
2023-08-24T03:00:47.839Z,15.50
2023-08-24T03:03:51.805Z,15.55
2023-08-24T03:06:55.430Z,15.55
2023-08-24T03:09:59.072Z,15.63
2023-08-24T03:13:02.698Z,15.60
2023-08-24T03:16:08.877Z,15.59
2023-08-24T03:19:13.340Z,15.65
2023-08-24T03:22:17.034Z,15.59
2023-08-24T03:25:20.795Z,15.61
2023-08-24T03:28:24.397Z,15.75
2023-08-24T03:31:30.211Z,15.69
2023-08-24T03:34:33.849Z,15.73
2023-08-24T03:37:39.797Z,15.81
2023-08-24T03:40:43.858Z,15.77
2023-08-24T03:43:47.520Z,15.76
2023-08-24T03:46:52.728Z,15.67
2023-08-24T03:49:56.704Z,15.71
2023-08-24T03:53:00.334Z,15.75
2023-08-24T03:56:04.712Z,15.81
2023-08-24T03:59:08.321Z,15.73
2023-08-24T04:02:13.426Z,15.79
2023-08-24T04:05:17.016Z,15.70
2023-08-24T04:08:20.690Z,15.69
2023-08-24T04:11:24.373Z,15.63
2023-08-24T04:14:28.654Z,15.59
2023-08-24T04:17:33.771Z,15.64
2023-08-24T04:20:37.514Z,15.61
2023-08-24T04:23:45.978Z,15.65
2023-08-24T04:26:49.622Z,15.64
2023-08-24T04:29:53.328Z,15.67
2023-08-24T04:32:58.359Z,15.81
2023-08-24T04:36:02.075Z,15.77
2023-08-24T04:39:06.146Z,15.72
2023-08-24T04:42:09.975Z,15.81
2023-08-24T04:45:13.685Z,15.77
2023-08-24T04:48:18.709Z,15.84
2023-08-24T04:51:22.539Z,15.91
2023-08-24T04:54:26.131Z,15.89
2023-08-24T04:57:29.786Z,15.93
2023-08-24T05:00:34.645Z,15.99
2023-08-24T05:03:39.873Z,15.99
2023-08-24T05:06:43.478Z,16.07
2023-08-24T05:09:47.155Z,16.06
2023-08-24T05:12:50.816Z,16.06
2023-08-24T05:15:54.488Z,16.08
2023-08-24T05:18:59.472Z,16.06
2023-08-24T05:22:03.667Z,16.10
2023-08-24T05:25:08.677Z,16.15
2023-08-24T05:28:12.342Z,16.13
2023-08-24T05:31:16.375Z,16.20
2023-08-24T05:34:22.224Z,16.25
2023-08-24T05:37:26.907Z,16.32
2023-08-24T05:40:30.604Z,16.41
2023-08-24T05:43:34.289Z,16.53
2023-08-24T05:46:37.950Z,16.58
2023-08-24T05:49:42.995Z,16.65
2023-08-24T05:52:46.786Z,16.73
2023-08-24T05:55:50.451Z,16.68
2023-08-24T05:58:54.160Z,16.67
2023-08-24T06:01:57.945Z,16.61
2023-08-24T06:05:03.021Z,16.61
2023-08-24T06:08:07.708Z,16.64
2023-08-24T06:11:12.043Z,16.62
2023-08-24T06:14:16.497Z,16.74
2023-08-24T06:17:20.462Z,16.84
2023-08-24T06:20:25.508Z,17.14
2023-08-24T06:23:29.195Z,17.54
2023-08-24T06:26:32.841Z,17.79
2023-08-24T06:29:37.866Z,18.12
2023-08-24T06:32:41.926Z,18.51
2023-08-24T06:35:47.062Z,18.57
2023-08-24T06:38:50.649Z,18.87
2023-08-24T06:41:54.334Z,18.94
2023-08-24T06:44:57.997Z,18.84
2023-08-24T06:48:01.825Z,19.10
2023-08-24T06:51:06.987Z,19.30
2023-08-24T06:54:10.817Z,19.34
2023-08-24T06:57:14.387Z,19.40
2023-08-24T07:00:22.877Z,19.59
2023-08-24T07:03:29.069Z,19.81
2023-08-24T07:06:36.946Z,20.16
2023-08-24T07:09:40.571Z,20.25
2023-08-24T07:12:46.053Z,20.31
2023-08-24T07:15:50.826Z,20.25
2023-08-24T07:18:54.608Z,20.49
2023-08-24T07:21:59.631Z,20.97
2023-08-24T07:25:06.217Z,21.14
2023-08-24T07:28:10.646Z,21.32
2023-08-24T07:31:14.765Z,21.66
2023-08-24T07:34:18.497Z,21.03
2023-08-24T07:37:23.558Z,20.40
2023-08-24T07:40:28.336Z,21.04
2023-08-24T07:43:32.061Z,21.74
2023-08-24T07:46:35.998Z,21.10
2023-08-24T07:49:44.368Z,21.16
2023-08-24T07:52:49.891Z,21.44
2023-08-24T07:55:55.039Z,21.72
2023-08-24T07:58:58.724Z,21.80
2023-08-24T08:02:02.459Z,21.58
2023-08-24T08:05:08.422Z,21.06
2023-08-24T08:08:14.245Z,21.55
2023-08-24T08:11:17.938Z,21.71
2023-08-24T08:14:22.577Z,21.63
2023-08-24T08:17:26.707Z,21.91
2023-08-24T08:20:30.707Z,21.64
2023-08-24T08:23:35.777Z,22.14
2023-08-24T08:26:39.416Z,22.26
2023-08-24T08:29:43.959Z,22.28
2023-08-24T08:32:47.834Z,22.34
2023-08-24T08:35:51.537Z,22.30
2023-08-24T08:38:56.530Z,21.73
2023-08-24T08:42:00.292Z,22.25
2023-08-24T08:45:10.634Z,22.41
2023-08-24T08:48:14.528Z,22.65
2023-08-24T08:51:20.785Z,21.87
2023-08-24T08:54:25.930Z,21.63
2023-08-24T09:00:38.111Z,22.90
2023-08-24T09:03:42.839Z,22.52
2023-08-24T09:06:46.758Z,22.07
2023-08-24T09:09:51.986Z,23.05
2023-08-24T09:12:55.814Z,23.21
2023-08-24T09:16:07.593Z,23.75
2023-08-24T09:19:14.618Z,24.41
2023-08-24T09:22:18.565Z,25.21
2023-08-24T09:25:23.610Z,24.18
2023-08-24T09:28:27.309Z,24.47
2023-08-24T09:31:38.900Z,24.99
2023-08-24T09:34:44.274Z,24.80
2023-08-24T09:37:47.919Z,24.87
2023-08-24T09:40:55.937Z,23.87
2023-08-24T09:44:06.420Z,23.90
2023-08-24T09:47:13.156Z,23.97
2023-08-24T09:50:16.802Z,23.45
2023-08-24T09:53:23.425Z,23.88
2023-08-24T09:56:31.066Z,23.60
2023-08-24T09:59:37.591Z,23.91
2023-08-24T10:02:54.599Z,24.02
2023-08-24T10:06:08.017Z,23.85
2023-08-24T10:09:31.244Z,23.60
2023-08-24T10:12:53.276Z,24.10
2023-08-24T10:15:58.367Z,23.87
2023-08-24T10:19:04.752Z,24.00
2023-08-24T10:22:10.229Z,24.24
2023-08-24T10:25:15.339Z,24.00
2023-08-24T10:28:22.910Z,23.81
2023-08-24T10:31:27.165Z,23.53
2023-08-24T10:34:30.959Z,23.95
2023-08-24T10:37:35.420Z,24.10
2023-08-24T10:40:45.112Z,23.88
2023-08-24T10:43:52.730Z,24.20
2023-08-24T10:47:20.424Z,24.40
2023-08-24T10:50:25.215Z,24.23
2023-08-24T10:53:42.709Z,24.60
2023-08-24T10:56:58.139Z,24.58
2023-08-24T11:00:07.950Z,24.37
2023-08-24T11:03:13.108Z,24.72
2023-08-24T11:06:24.158Z,24.43
2023-08-24T11:09:28.785Z,24.53
2023-08-24T11:13:10.741Z,24.87
2023-08-24T11:16:42.788Z,24.74
2023-08-24T11:19:52.562Z,24.82
2023-08-24T11:22:58.714Z,24.80
2023-08-24T11:26:03.133Z,24.88
2023-08-24T11:29:08.198Z,25.10
2023-08-24T11:32:13.627Z,25.13
2023-08-24T11:35:17.432Z,24.66
2023-08-24T11:38:23.307Z,25.04
2023-08-24T11:41:27.955Z,25.10
2023-08-24T11:44:32.521Z,24.86
2023-08-24T11:47:37.604Z,24.98
2023-08-24T11:50:41.332Z,24.88
2023-08-24T11:53:48.067Z,24.95
2023-08-24T11:56:51.793Z,25.29
2023-08-24T11:59:56.090Z,25.21
2023-08-24T12:03:02.063Z,25.03
2023-08-24T12:06:13.927Z,25.37
2023-08-24T12:09:18.133Z,25.20
2023-08-24T12:12:24.828Z,25.36
2023-08-24T12:15:31.446Z,25.46
2023-08-24T12:18:49.138Z,25.18
2023-08-24T12:21:53.416Z,25.51
2023-08-24T12:24:57.114Z,25.40
2023-08-24T12:28:14.702Z,25.54
2023-08-24T12:31:20.440Z,25.45
2023-08-24T12:34:25.622Z,25.39
2023-08-24T12:37:29.262Z,25.45
2023-08-24T12:40:34.025Z,25.72
2023-08-24T12:43:40.296Z,25.50
2023-08-24T12:46:44.662Z,25.64
2023-08-24T12:49:51.827Z,25.92
2023-08-24T12:52:57.535Z,25.75
2023-08-24T12:56:01.342Z,25.31
2023-08-24T12:59:05.027Z,25.78
2023-08-24T13:02:08.767Z,25.57
2023-08-24T13:05:14.188Z,25.84
2023-08-24T13:08:17.958Z,25.83
2023-08-24T13:11:21.717Z,26.00
2023-08-24T13:14:25.520Z,25.94
2023-08-24T13:17:29.224Z,26.18
2023-08-24T13:20:34.342Z,26.53
2023-08-24T13:23:38.148Z,26.32
2023-08-24T13:26:42.088Z,26.32
2023-08-24T13:29:45.819Z,26.52
2023-08-24T13:32:50.072Z,26.63
2023-08-24T13:35:55.462Z,26.57
2023-08-24T13:38:59.103Z,26.28
2023-08-24T13:42:03.946Z,26.43
2023-08-24T13:45:09.204Z,26.44
2023-08-24T13:48:12.906Z,26.19
2023-08-24T13:51:19.012Z,26.27
2023-08-24T13:54:22.773Z,26.63
2023-08-24T13:57:26.520Z,26.43
2023-08-24T14:00:30.147Z,26.36
2023-08-24T14:03:34.006Z,26.53
2023-08-24T14:06:39.418Z,26.68
2023-08-24T14:09:55.161Z,26.49
2023-08-24T14:13:06.688Z,26.83
2023-08-24T14:16:10.375Z,26.73
2023-08-24T14:19:14.342Z,26.62
2023-08-24T14:22:19.426Z,26.84
2023-08-24T14:25:23.068Z,26.35
2023-08-24T14:28:26.822Z,26.34
2023-08-24T14:31:32.156Z,26.52
2023-08-24T14:34:37.395Z,26.51
2023-08-24T14:37:42.443Z,26.21
2023-08-24T14:40:46.208Z,26.22
2023-08-24T14:43:50.250Z,26.28
2023-08-24T14:46:54.190Z,26.47
2023-08-24T14:49:57.871Z,26.37
2023-08-24T14:53:03.221Z,26.40
2023-08-24T14:56:06.930Z,26.39
2023-08-24T14:59:10.832Z,26.09
2023-08-24T15:02:14.466Z,26.15
2023-08-24T15:05:19.638Z,26.42
2023-08-24T15:08:26.157Z,26.43
2023-08-24T15:11:30.159Z,26.22
2023-08-24T15:14:34.290Z,26.24
2023-08-24T15:17:38.452Z,26.18
2023-08-24T15:20:44.305Z,26.04
2023-08-24T15:23:49.490Z,25.92
2023-08-24T15:26:53.184Z,26.13
2023-08-24T15:29:56.850Z,26.05
2023-08-24T15:33:00.473Z,25.87
2023-08-24T15:36:04.729Z,25.88
2023-08-24T15:39:09.775Z,25.91
2023-08-24T15:42:13.490Z,25.76
2023-08-24T15:45:30.673Z,25.77
2023-08-24T15:48:34.704Z,25.83
2023-08-24T15:51:40.468Z,25.71
2023-08-24T15:54:45.912Z,25.64
2023-08-24T15:57:49.868Z,25.51
2023-08-24T16:00:54.332Z,25.37
2023-08-24T16:03:58.141Z,25.29
2023-08-24T16:07:01.962Z,25.28
2023-08-24T16:10:08.327Z,25.12
2023-08-24T16:13:12.115Z,25.01
2023-08-24T16:16:15.918Z,24.86
2023-08-24T16:19:19.583Z,24.72
2023-08-24T16:22:23.219Z,24.71
2023-08-24T16:25:28.329Z,24.62
2023-08-24T16:28:32.014Z,24.64
2023-08-24T16:31:36.809Z,24.54
2023-08-24T16:34:41.417Z,24.39
2023-08-24T16:37:45.153Z,24.26
2023-08-24T16:40:50.210Z,24.22
2023-08-24T16:43:53.886Z,24.08
2023-08-24T16:46:57.571Z,23.98
2023-08-24T16:50:01.395Z,23.97
2023-08-24T16:53:05.734Z,23.90
2023-08-24T16:56:10.807Z,23.83
2023-08-24T16:59:14.486Z,23.84
2023-08-24T17:02:18.397Z,23.74
2023-08-24T17:05:22.553Z,23.70
2023-08-24T17:08:26.222Z,23.67
2023-08-24T17:11:31.246Z,23.49
2023-08-24T17:14:35.014Z,23.41
2023-08-24T17:17:38.706Z,23.37
2023-08-24T17:20:42.487Z,23.29
2023-08-24T17:23:46.146Z,23.18
2023-08-24T17:26:51.349Z,23.17
2023-08-24T17:29:55.142Z,23.15
2023-08-24T17:32:59.927Z,23.04
2023-08-24T17:36:04.905Z,23.03
2023-08-24T17:39:09.040Z,22.96
2023-08-24T17:42:14.333Z,22.88
2023-08-24T17:45:20.118Z,22.85
2023-08-24T17:48:23.899Z,22.85
2023-08-24T17:51:30.129Z,22.84
2023-08-24T17:54:33.942Z,22.78
2023-08-24T17:57:39.102Z,22.76
2023-08-24T18:00:42.794Z,22.67
2023-08-24T18:03:46.612Z,22.63
2023-08-24T18:06:50.320Z,22.59
2023-08-24T18:09:53.957Z,22.59
2023-08-24T18:12:59.921Z,22.55
2023-08-24T18:16:03.948Z,22.52
2023-08-24T18:19:07.627Z,22.51
2023-08-24T18:22:11.477Z,22.48
2023-08-24T18:25:15.219Z,22.47
2023-08-24T18:28:20.366Z,22.53
2023-08-24T18:31:25.458Z,22.52
2023-08-24T18:34:29.483Z,22.53
2023-08-24T18:37:33.889Z,22.47
2023-08-24T18:40:42.996Z,22.46
2023-08-24T18:43:48.096Z,22.47
2023-08-24T18:46:52.732Z,22.42
2023-08-24T18:49:56.596Z,22.37
2023-08-24T18:53:00.272Z,22.34
2023-08-24T18:56:03.957Z,22.31
2023-08-24T18:59:09.071Z,22.17
2023-08-24T19:02:16.252Z,22.10
2023-08-24T19:05:20.490Z,22.05
2023-08-24T19:08:24.489Z,21.97
2023-08-24T19:11:28.192Z,21.91
2023-08-24T19:14:36.827Z,21.89
2023-08-24T19:17:40.610Z,21.90
2023-08-24T19:20:45.141Z,21.88
2023-08-24T19:23:49.084Z,21.85
2023-08-24T19:26:53.053Z,21.83
2023-08-24T19:29:59.026Z,21.89
2023-08-24T19:33:02.699Z,21.86
2023-08-24T19:36:07.492Z,21.78
2023-08-24T19:39:11.053Z,21.75
2023-08-24T19:42:14.803Z,21.74
2023-08-24T19:45:26.003Z,21.69
2023-08-24T19:48:31.573Z,21.64
2023-08-24T19:51:35.369Z,21.46
2023-08-24T19:54:39.668Z,21.45
2023-08-24T19:57:43.271Z,21.43
2023-08-24T20:00:48.250Z,21.39
2023-08-24T20:03:51.926Z,21.39
2023-08-24T20:06:56.052Z,21.36
2023-08-24T20:09:59.585Z,21.32
2023-08-24T20:13:03.238Z,21.18
2023-08-24T20:16:09.336Z,21.05
2023-08-24T20:19:15.521Z,21.03
2023-08-24T20:22:19.366Z,20.95
2023-08-24T20:25:24.169Z,20.87
2023-08-24T20:28:32.060Z,20.83
2023-08-24T20:31:38.078Z,20.80
2023-08-24T20:34:41.826Z,20.77
2023-08-24T20:37:45.950Z,20.66
2023-08-24T20:40:50.116Z,20.54
2023-08-24T20:43:53.801Z,20.49
2023-08-24T20:46:58.907Z,20.45
2023-08-24T20:50:02.600Z,20.33
2023-08-24T20:53:08.173Z,20.17
2023-08-24T20:56:13.402Z,20.23
2023-08-24T20:59:18.383Z,20.16
2023-08-24T21:02:24.139Z,20.08
2023-08-24T21:05:27.885Z,20.15
2023-08-24T21:08:31.563Z,20.13
2023-08-24T21:11:36.342Z,20.06
2023-08-24T21:14:40.041Z,20.04
2023-08-24T21:17:45.023Z,20.05
2023-08-24T21:20:48.694Z,20.02
2023-08-24T21:23:53.118Z,19.99
2023-08-24T21:26:56.711Z,19.88
2023-08-24T21:30:00.327Z,19.88
2023-08-24T21:33:05.760Z,19.86
2023-08-24T21:36:09.548Z,19.81
2023-08-24T21:39:13.623Z,19.75
2023-08-24T21:42:17.309Z,19.71
2023-08-24T21:45:29.498Z,19.66
2023-08-24T21:48:34.561Z,19.62
2023-08-24T21:51:38.445Z,19.58
2023-08-24T21:54:42.067Z,19.57
2023-08-24T21:57:45.844Z,19.48
2023-08-24T22:00:49.798Z,19.47
2023-08-24T22:03:54.865Z,19.45
2023-08-24T22:06:58.502Z,19.43
2023-08-24T22:10:02.466Z,19.43
2023-08-24T22:13:06.390Z,19.44
2023-08-24T22:16:10.105Z,19.41
2023-08-24T22:19:26.154Z,19.34
2023-08-24T22:22:31.129Z,19.32
2023-08-24T22:25:35.027Z,19.32
2023-08-24T22:28:38.618Z,19.47
2023-08-24T22:31:42.538Z,19.37
2023-08-24T22:34:47.750Z,19.17
2023-08-24T22:37:51.710Z,19.02
2023-08-24T22:40:55.523Z,18.99
2023-08-24T22:43:59.139Z,18.93
2023-08-24T22:47:02.890Z,18.90
2023-08-24T22:50:09.786Z,18.88
2023-08-24T22:53:14.261Z,18.83
2023-08-24T22:56:18.100Z,18.81
2023-08-24T22:59:21.812Z,18.79
2023-08-24T23:02:26.243Z,18.87
2023-08-24T23:05:31.365Z,18.88
2023-08-24T23:08:35.035Z,18.86
2023-08-24T23:11:39.084Z,18.82
2023-08-24T23:14:42.678Z,18.84
2023-08-24T23:17:46.325Z,18.88
2023-08-24T23:20:52.004Z,18.93
2023-08-24T23:23:55.747Z,19.00
2023-08-24T23:26:59.555Z,19.12
2023-08-24T23:30:03.401Z,19.10
2023-08-24T23:33:08.438Z,19.03
2023-08-24T23:36:13.666Z,19.09
2023-08-24T23:39:17.904Z,19.11
2023-08-24T23:42:22.931Z,19.10
2023-08-24T23:45:26.882Z,19.13
2023-08-24T23:48:30.573Z,19.16
2023-08-24T23:51:36.624Z,19.19
2023-08-24T23:54:40.268Z,19.22
2023-08-24T23:57:43.952Z,19.25
